Time;durP1;ratioP1;P1;durP2;ratioP2;P2;SDS_P1;SDS_P2;PMS_P1;PMS_P2;Temp;Humidity;BMP_temperature;BMP_pressure;BME280_temperature;BME280_humidity;BME280_pressure;Samples;Min_cycle;Max_cycle;Signal;HPM_P1;HPM_P2
2022/11/26 00:01:21;;;;;;;;;;;;;;;8.43;63.20;100388.25;5082621;28;20182;-70
2022/11/26 00:03:48;;;;;;;;;;;;;;;8.43;63.03;100382.97;5082230;28;19920;-71
2022/11/26 00:06:16;;;;;;;;;;;;;;;8.33;63.18;100390.84;5070430;28;20171;-70
2022/11/26 00:08:41;;;;;;;;;;;;;;;8.36;63.30;100384.47;5083263;28;19946;-70
2022/11/26 00:11:06;;;;;;;;;;;;;;;8.49;62.60;100383.25;5082573;28;19943;-70
2022/11/26 00:13:32;;;;;;;;;;;;;;;8.60;62.38;100388.44;5086457;28;19916;-70
2022/11/26 00:15:57;;;;;;;;;;;;;;;8.63;62.11;100385.53;5087200;28;20197;-71
2022/11/26 00:18:25;;;;;;;;;;;;;;;8.59;62.53;100380.66;5086192;28;19916;-70
2022/11/26 00:20:53;;;;;;;;;;;;;;;8.86;61.56;100390.59;5086177;28;20183;-71
2022/11/26 00:23:20;;;;;;;;;;;;;;;8.91;61.51;100398.94;5086920;28;19923;-70
2022/11/26 00:25:47;;;;;;;;;;;;;;;8.89;61.07;100401.72;5086103;28;20095;-71
2022/11/26 00:28:32;;;;;;;;;;;;;;;8.78;61.36;100396.56;5086863;28;19916;-71
2022/11/26 00:30:59;;;;;;;;;;;;;;;8.84;61.04;100398.66;5089552;28;19912;-70
2022/11/26 00:33:26;;;;;;;;;;;;;;;8.67;61.63;100395.81;5086534;28;19924;-69
2022/11/26 00:36:00;;;;;;;;;;;;;;;8.74;60.86;100399.59;5086453;28;20270;-71
2022/11/26 00:38:26;;;;;;;;;;;;;;;8.44;61.75;100405.75;5088551;28;19923;-70
2022/11/26 00:40:51;;;;;;;;;;;;;;;8.29;62.57;100398.09;5086505;28;19913;-71
2022/11/26 00:43:17;;;;;;;;;;;;;;;8.44;62.08;100401.31;5087609;28;19916;-71
2022/11/26 00:45:42;;;;;;;;;;;;;;;8.58;61.55;100405.38;5089645;28;19918;-70
2022/11/26 00:48:08;;;;;;;;;;;;;;;8.18;61.54;100363.06;5088346;28;19997;-70
2022/11/26 00:50:36;;;;;;;;;;;;;;;8.37;61.72;100404.59;5084352;28;19912;-71
2022/11/26 00:53:03;;;;;;;;;;;;;;;8.43;61.61;100404.91;5095080;28;20087;-70
2022/11/26 00:55:54;;;;;;;;;;;;;;;8.43;61.66;100406.72;5072555;28;20152;-70
2022/11/26 00:58:27;;;;;;;;;;;;;;;8.50;61.06;100405.22;5065879;28;19916;-71
2022/11/26 01:00:54;;;;;;;;;;;;;;;8.34;61.43;100408.34;5086575;28;19995;-70
2022/11/26 01:03:19;;;;;;;;;;;;;;;8.72;60.40;100409.47;5075170;28;19961;-70
2022/11/26 01:05:47;;;;;;;;;;;;;;;8.58;60.21;100405.38;5088939;28;19912;-70
2022/11/26 01:08:32;;;;;;;;;;;;;;;8.77;59.40;100408.09;5085886;28;19931;-70
2022/11/26 01:10:58;;;;;;;;;;;;;;;8.88;59.07;100412.44;5085916;28;19920;-70
2022/11/26 01:13:24;;;;;;;;;;;;;;;8.78;59.53;100408.94;5088442;28;19923;-70
2022/11/26 01:15:49;;;;;;;;;;;;;;;8.53;59.85;100405.78;5085194;28;20165;-70
2022/11/26 01:18:16;;;;;;;;;;;;;;;8.63;59.88;100404.00;5086020;28;19928;-70
2022/11/26 01:20:42;;;;;;;;;;;;;;;8.78;59.56;100406.28;5085931;28;19913;-70
2022/11/26 01:23:11;;;;;;;;;;;;;;;8.76;59.21;100401.13;5068156;28;19951;-70
2022/11/26 01:25:37;;;;;;;;;;;;;;;8.42;59.83;100408.50;5075325;28;19987;-71
2022/11/26 01:28:03;;;;;;;;;;;;;;;8.45;59.78;100402.13;5085770;28;20110;-70
2022/11/26 01:30:30;;;;;;;;;;;;;;;8.59;59.89;100401.78;5085619;28;19919;-71
2022/11/26 01:32:55;;;;;;;;;;;;;;;8.76;59.96;100405.59;5085713;28;20102;-70
2022/11/26 01:35:21;;;;;;;;;;;;;;;8.31;60.73;100404.09;5083625;28;19919;-71
2022/11/26 01:37:47;;;;;;;;;;;;;;;8.38;60.81;100401.00;5086987;28;19957;-70
2022/11/26 01:40:21;;;;;;;;;;;;;;;8.61;59.85;100405.94;5084292;28;20213;-70
2022/11/26 01:42:50;;;;;;;;;;;;;;;8.62;59.95;100397.06;5085124;28;19997;-70
2022/11/26 01:45:16;;;;;;;;;;;;;;;8.58;59.40;100400.09;5086527;28;20216;-70
2022/11/26 01:47:42;;;;;;;;;;;;;;;8.64;59.51;100394.28;5086569;28;19917;-70
2022/11/26 01:50:26;;;;;;;;;;;;;;;8.69;59.03;100392.09;5085425;28;19977;-70
2022/11/26 01:52:51;;;;;;;;;;;;;;;8.63;59.34;100398.72;5086232;28;19917;-71
2022/11/26 01:55:17;;;;;;;;;;;;;;;8.21;60.97;100402.38;5088587;28;19919;-71
2022/11/26 01:57:43;;;;;;;;;;;;;;;8.23;60.80;100397.81;5082775;28;19916;-70
2022/11/26 02:00:09;;;;;;;;;;;;;;;8.18;61.24;100392.09;5067591;28;20035;-70
2022/11/26 02:02:34;;;;;;;;;;;;;;;8.22;60.68;100390.84;5087800;28;19920;-71
2022/11/26 02:05:05;;;;;;;;;;;;;;;8.15;61.13;100392.34;5086847;28;19919;-70
2022/11/26 02:07:31;;;;;;;;;;;;;;;8.23;60.63;100397.81;5084463;28;19916;-71
2022/11/26 02:09:56;;;;;;;;;;;;;;;8.23;60.42;100395.16;5084785;28;19959;-70
2022/11/26 02:12:21;;;;;;;;;;;;;;;8.26;59.95;100393.09;5083878;28;19916;-70
2022/11/26 02:14:47;;;;;;;;;;;;;;;8.06;60.73;100401.88;5087493;28;19959;-70
2022/11/26 02:17:33;;;;;;;;;;;;;;;8.11;60.22;100399.69;5084586;28;19913;-70
2022/11/26 02:20:11;;;;;;;;;;;;;;;7.82;61.24;100404.78;5084185;28;19977;-70
2022/11/26 02:22:45;;;;;;;;;;;;;;;7.90;61.15;100412.88;5085835;28;19924;-69
2022/11/26 02:25:10;;;;;;;;;;;;;;;7.78;60.96;100413.91;5085266;28;19920;-71
2022/11/26 02:27:36;;;;;;;;;;;;;;;7.71;62.03;100415.38;5086039;28;20092;-70
2022/11/26 02:30:01;;;;;;;;;;;;;;;7.42;62.44;100416.94;5091869;28;19911;-70
2022/11/26 02:32:29;;;;;;;;;;;;;;;7.42;62.24;100415.16;5083778;28;20193;-71
2022/11/26 02:34:59;;;;;;;;;;;;;;;7.72;61.93;100418.84;5084612;28;20252;-70
2022/11/26 02:37:28;;;;;;;;;;;;;;;7.55;62.13;100425.50;5083906;28;20156;-71
2022/11/26 02:39:55;;;;;;;;;;;;;;;7.54;62.57;100423.84;5083764;28;20166;-70
2022/11/26 02:42:27;;;;;;;;;;;;;;;7.48;62.82;100422.56;5083218;28;19923;-70
2022/11/26 02:44:54;;;;;;;;;;;;;;;7.38;63.35;100416.34;5083253;28;20217;-70
2022/11/26 02:47:21;;;;;;;;;;;;;;;7.73;63.04;100420.53;5067145;28;20189;-70
2022/11/26 02:49:48;;;;;;;;;;;;;;;7.89;62.73;100424.38;5075273;28;19916;-70
2022/11/26 02:52:15;;;;;;;;;;;;;;;8.13;61.27;100428.56;5087365;28;19926;-71
2022/11/26 02:54:41;;;;;;;;;;;;;;;8.16;61.28;100429.16;5084260;28;19947;-70
2022/11/26 02:57:10;;;;;;;;;;;;;;;7.85;61.58;100441.44;5082757;28;20134;-69
2022/11/26 02:59:37;;;;;;;;;;;;;;;7.87;61.50;100434.22;5092127;28;19916;-71
2022/11/26 03:02:07;;;;;;;;;;;;;;;7.92;61.60;100436.47;5087623;28;19920;-71
2022/11/26 03:04:34;;;;;;;;;;;;;;;7.97;61.25;100439.56;5086796;28;19916;-70
2022/11/26 03:07:01;;;;;;;;;;;;;;;8.18;60.35;100448.31;5086753;28;20216;-71
2022/11/26 03:09:36;;;;;;;;;;;;;;;8.32;60.00;100441.88;5081696;28;19921;-71
2022/11/26 03:12:02;;;;;;;;;;;;;;;8.29;60.11;100444.78;5063295;28;19916;-70
2022/11/26 03:14:27;;;;;;;;;;;;;;;8.34;59.67;100450.56;5082972;28;19923;-70
2022/11/26 03:16:52;;;;;;;;;;;;;;;8.50;59.31;100450.91;5082840;28;19912;-71
2022/11/26 03:19:17;;;;;;;;;;;;;;;8.45;59.29;100452.28;5083639;28;20273;-71
2022/11/26 03:21:43;;;;;;;;;;;;;;;8.31;59.65;100456.03;5087074;28;19983;-70
2022/11/26 03:24:08;;;;;;;;;;;;;;;8.34;59.97;100455.00;5081558;28;19916;-71
2022/11/26 03:26:33;;;;;;;;;;;;;;;8.32;59.87;100460.34;5084661;28;20082;-70
2022/11/26 03:28:58;;;;;;;;;;;;;;;8.23;59.92;100466.41;5086668;28;19916;-70
2022/11/26 03:31:24;;;;;;;;;;;;;;;8.26;60.19;100464.34;5082261;28;20217;-70
2022/11/26 03:33:49;;;;;;;;;;;;;;;8.15;60.63;100474.97;5083244;28;19924;-70
2022/11/26 03:36:14;;;;;;;;;;;;;;;8.15;60.64;100480.22;5085000;28;19920;-71
2022/11/26 03:38:39;;;;;;;;;;;;;;;8.15;60.53;100479.41;5083906;28;19940;-71
2022/11/26 03:41:05;;;;;;;;;;;;;;;8.06;59.90;100496.00;5083147;28;19912;-69
2022/11/26 03:43:30;;;;;;;;;;;;;;;7.94;60.19;100492.56;5086747;28;19916;-71
2022/11/26 03:45:55;;;;;;;;;;;;;;;7.79;60.41;100505.22;5084129;28;19921;-71
2022/11/26 03:48:21;;;;;;;;;;;;;;;7.79;60.94;100507.00;5082293;28;19916;-71
2022/11/26 03:50:46;;;;;;;;;;;;;;;7.71;61.73;100506.81;5084795;28;19923;-69
2022/11/26 03:53:11;;;;;;;;;;;;;;;7.66;61.69;100510.66;5090827;28;19916;-71
2022/11/26 03:55:36;;;;;;;;;;;;;;;7.73;61.17;100507.53;5086967;28;19924;-70
2022/11/26 03:58:02;;;;;;;;;;;;;;;7.69;61.62;100518.31;5081391;28;19924;-71
2022/11/26 04:00:27;;;;;;;;;;;;;;;7.75;61.66;100524.03;5084511;28;19912;-70
2022/11/26 04:02:52;;;;;;;;;;;;;;;7.75;60.92;100529.31;5082570;28;19923;-70
2022/11/26 04:05:18;;;;;;;;;;;;;;;7.72;60.66;100527.78;5084379;28;20201;-71
2022/11/26 04:07:43;;;;;;;;;;;;;;;7.63;60.88;100534.63;5082757;28;19916;-70
2022/11/26 04:10:08;;;;;;;;;;;;;;;7.49;61.49;100536.69;5082979;28;20202;-70
2022/11/26 04:12:34;;;;;;;;;;;;;;;7.47;61.96;100541.25;5086466;28;19990;-69
2022/11/26 04:14:59;;;;;;;;;;;;;;;7.37;61.34;100541.16;5083067;28;19942;-70
2022/11/26 04:17:25;;;;;;;;;;;;;;;7.33;61.92;100551.09;5081937;28;20157;-70
2022/11/26 04:19:50;;;;;;;;;;;;;;;7.29;61.87;100543.56;5084209;28;19919;-71
2022/11/26 04:22:16;;;;;;;;;;;;;;;7.25;62.20;100553.47;5080843;28;20437;-70
2022/11/26 04:24:41;;;;;;;;;;;;;;;7.30;62.25;100547.88;5072367;28;20210;-70
2022/11/26 04:27:06;;;;;;;;;;;;;;;7.34;61.99;100542.22;5083503;28;20162;-69
2022/11/26 04:29:31;;;;;;;;;;;;;;;7.44;61.55;100547.59;5083025;28;19991;-69
2022/11/26 04:31:57;;;;;;;;;;;;;;;7.41;60.80;100549.66;5082998;28;19975;-70
2022/11/26 04:34:22;;;;;;;;;;;;;;;7.30;59.38;100550.50;5082245;28;19928;-70
2022/11/26 04:36:47;;;;;;;;;;;;;;;7.03;61.37;100548.22;5080984;28;19919;-70
2022/11/26 04:39:13;;;;;;;;;;;;;;;6.88;61.56;100555.50;5066133;28;19923;-70
2022/11/26 04:41:38;;;;;;;;;;;;;;;6.77;61.23;100563.38;5082869;28;19920;-70
2022/11/26 04:44:03;;;;;;;;;;;;;;;6.71;61.81;100569.13;5086149;28;20206;-71
2022/11/26 04:46:29;;;;;;;;;;;;;;;6.68;62.12;100566.72;5083770;28;19920;-70
2022/11/26 04:48:54;;;;;;;;;;;;;;;6.68;63.45;100569.34;5088707;28;20054;-69
2022/11/26 04:51:20;;;;;;;;;;;;;;;6.78;63.59;100572.13;5083494;28;19976;-70
2022/11/26 04:53:45;;;;;;;;;;;;;;;6.82;63.62;100574.41;5081481;28;19961;-70
2022/11/26 04:56:10;;;;;;;;;;;;;;;6.86;63.20;100577.63;5084588;28;19982;-71
2022/11/26 04:58:36;;;;;;;;;;;;;;;6.87;63.04;100582.78;5085042;28;19924;-70
2022/11/26 05:01:01;;;;;;;;;;;;;;;6.73;63.30;100583.84;5086839;28;19947;-70
2022/11/26 05:03:26;;;;;;;;;;;;;;;6.73;62.93;100586.47;5085535;28;19929;-71
2022/11/26 05:05:52;;;;;;;;;;;;;;;6.77;62.30;100602.88;5078540;28;20325;-71
2022/11/26 05:08:18;;;;;;;;;;;;;;;6.66;62.47;100610.75;5088633;28;19923;-70
2022/11/26 05:10:43;;;;;;;;;;;;;;;6.40;59.13;100610.91;5089084;28;19947;-71
2022/11/26 05:13:08;;;;;;;;;;;;;;;6.20;62.34;100614.16;5085782;28;20099;-71
2022/11/26 05:15:34;;;;;;;;;;;;;;;6.27;63.86;100617.19;5086868;28;19913;-71
2022/11/26 05:17:59;;;;;;;;;;;;;;;6.36;63.40;100617.34;5088774;28;19939;-71
2022/11/26 05:20:24;;;;;;;;;;;;;;;6.36;64.12;100621.78;5085258;28;19939;-71
2022/11/26 05:22:50;;;;;;;;;;;;;;;6.22;64.12;100625.38;5085911;28;19989;-71
2022/11/26 05:25:15;;;;;;;;;;;;;;;6.22;64.38;100628.03;5084613;28;19916;-70
2022/11/26 05:27:40;;;;;;;;;;;;;;;6.29;64.54;100631.06;5085071;28;19939;-70
2022/11/26 05:30:06;;;;;;;;;;;;;;;6.19;65.96;100627.41;5086157;28;19912;-70
2022/11/26 05:32:31;;;;;;;;;;;;;;;6.22;65.87;100628.03;5086029;28;19917;-71
2022/11/26 05:34:57;;;;;;;;;;;;;;;6.31;65.70;100624.75;5084310;28;19920;-70
2022/11/26 05:37:22;;;;;;;;;;;;;;;6.33;66.72;100627.25;5086203;28;19997;-70
2022/11/26 05:39:47;;;;;;;;;;;;;;;6.34;66.62;100624.53;5085579;28;20236;-70
2022/11/26 05:42:14;;;;;;;;;;;;;;;6.30;66.34;100622.22;5084599;28;19919;-70
2022/11/26 05:44:39;;;;;;;;;;;;;;;6.34;66.28;100621.88;5085001;28;19975;-71
2022/11/26 05:47:05;;;;;;;;;;;;;;;6.23;66.54;100634.13;5085647;28;19919;-70
2022/11/26 05:49:30;;;;;;;;;;;;;;;6.23;66.94;100628.84;5085131;28;20210;-71
2022/11/26 05:51:55;;;;;;;;;;;;;;;6.17;66.63;100631.94;5085310;28;19912;-71
2022/11/26 05:54:20;;;;;;;;;;;;;;;5.91;67.65;100628.56;5087126;28;19923;-71
2022/11/26 05:56:46;;;;;;;;;;;;;;;5.47;69.14;100631.72;5086130;28;19916;-70
2022/11/26 05:59:11;;;;;;;;;;;;;;;5.43;69.24;100631.94;5084696;28;19948;-71
2022/11/26 06:01:36;;;;;;;;;;;;;;;5.35;69.33;100643.91;5084339;28;19966;-71
2022/11/26 06:04:02;;;;;;;;;;;;;;;5.45;70.55;100650.22;5084712;28;19983;-70
2022/11/26 06:06:27;;;;;;;;;;;;;;;5.87;68.55;100658.63;5084556;28;21354;-70
2022/11/26 06:08:53;;;;;;;;;;;;;;;5.90;67.98;100658.44;5082948;28;20199;-71
2022/11/26 06:11:18;;;;;;;;;;;;;;;5.93;67.60;100656.44;5087995;28;19928;-70
2022/11/26 06:13:44;;;;;;;;;;;;;;;5.80;68.09;100655.59;5093954;28;19911;-71
2022/11/26 06:16:09;;;;;;;;;;;;;;;5.89;67.37;100657.59;5104977;28;19947;-71
2022/11/26 06:18:38;;;;;;;;;;;;;;;6.23;66.68;100666.53;5104527;28;19934;-69
2022/11/26 06:21:04;;;;;;;;;;;;;;;6.36;65.84;100662.06;5104850;28;19949;-70
2022/11/26 06:23:30;;;;;;;;;;;;;;;6.27;65.11;100665.38;5104752;28;19919;-70
2022/11/26 06:25:55;;;;;;;;;;;;;;;6.45;64.90;100665.81;5086137;28;19912;-70
2022/11/26 06:28:21;;;;;;;;;;;;;;;6.70;63.77;100667.47;5104791;28;20118;-70
2022/11/26 06:30:46;;;;;;;;;;;;;;;6.85;63.75;100662.84;5104750;28;19935;-70
2022/11/26 06:33:12;;;;;;;;;;;;;;;6.84;62.82;100669.06;5104320;28;19912;-71
2022/11/26 06:35:37;;;;;;;;;;;;;;;6.93;62.97;100673.63;5104613;28;19983;-71
2022/11/26 06:38:02;;;;;;;;;;;;;;;7.04;62.89;100677.13;5104355;28;19923;-70
2022/11/26 06:40:28;;;;;;;;;;;;;;;7.19;62.24;100685.66;5104040;28;20202;-70
2022/11/26 06:42:54;;;;;;;;;;;;;;;7.23;62.34;100688.88;5104102;28;19916;-71
2022/11/26 06:45:20;;;;;;;;;;;;;;;7.18;62.77;100691.88;5104265;28;20106;-71
2022/11/26 06:47:46;;;;;;;;;;;;;;;7.07;62.32;100691.84;5104020;28;19912;-70
2022/11/26 06:50:12;;;;;;;;;;;;;;;7.15;63.00;100693.91;5104263;28;19979;-70
2022/11/26 06:52:37;;;;;;;;;;;;;;;7.43;62.68;100684.75;5104250;28;19924;-70
2022/11/26 06:55:02;;;;;;;;;;;;;;;7.60;61.67;100676.38;5103746;28;20194;-70
2022/11/26 06:57:28;;;;;;;;;;;;;;;7.89;60.98;100688.09;5104214;28;19912;-69
2022/11/26 06:59:53;;;;;;;;;;;;;;;8.10;60.85;100685.53;5103942;28;19954;-70
2022/11/26 07:02:18;;;;;;;;;;;;;;;8.17;61.04;100694.63;5103687;28;19939;-71
2022/11/26 07:04:43;;;;;;;;;;;;;;;8.23;60.32;100685.38;5104260;28;20300;-71
2022/11/26 07:07:09;;;;;;;;;;;;;;;8.29;60.60;100701.56;5104439;28;19945;-69
2022/11/26 07:09:34;;;;;;;;;;;;;;;8.43;60.18;100705.78;5103611;28;19919;-70
2022/11/26 07:11:59;;;;;;;;;;;;;;;8.55;60.09;100694.22;5104009;28;19943;-69
2022/11/26 07:14:25;;;;;;;;;;;;;;;8.67;59.30;100699.44;5103736;28;19981;-71
2022/11/26 07:16:51;;;;;;;;;;;;;;;8.60;59.79;100704.41;5103935;28;19908;-71
2022/11/26 07:19:16;;;;;;;;;;;;;;;8.57;60.74;100707.28;5103628;28;19980;-71
2022/11/26 07:21:41;;;;;;;;;;;;;;;8.66;60.12;100698.59;5103463;28;19912;-71
2022/11/26 07:24:07;;;;;;;;;;;;;;;8.59;60.46;100700.06;5103410;28;19918;-71
2022/11/26 07:26:32;;;;;;;;;;;;;;;8.64;60.59;100695.25;5103673;28;20109;-71
2022/11/26 07:28:57;;;;;;;;;;;;;;;8.60;60.60;100699.13;5103777;28;19949;-70
2022/11/26 07:31:23;;;;;;;;;;;;;;;8.76;60.01;100699.53;5103666;28;19915;-71
2022/11/26 07:33:48;;;;;;;;;;;;;;;8.57;59.82;100697.56;5103542;28;19950;-70
2022/11/26 07:36:18;;;;;;;;;;;;;;;8.75;60.78;100692.56;5103371;28;19975;-71
2022/11/26 07:38:43;;;;;;;;;;;;;;;8.95;59.13;100694.38;5103434;28;20204;-70
2022/11/26 07:41:11;;;;;;;;;;;;;;;9.20;58.16;100692.31;5102942;28;19912;-70
2022/11/26 07:43:37;;;;;;;;;;;;;;;9.22;58.92;100698.31;5103430;28;20209;-71
2022/11/26 07:46:06;;;;;;;;;;;;;;;9.55;57.39;100682.22;5103556;28;20124;-71
2022/11/26 07:48:32;;;;;;;;;;;;;;;9.66;57.90;100686.59;5084953;28;19912;-70
2022/11/26 07:50:57;;;;;;;;;;;;;;;9.81;57.31;100685.25;5103549;28;20091;-71
2022/11/26 07:53:23;;;;;;;;;;;;;;;9.96;57.06;100679.59;5103193;28;20114;-71
2022/11/26 07:55:48;;;;;;;;;;;;;;;10.05;57.80;100690.19;5103108;28;19985;-70
2022/11/26 07:58:13;;;;;;;;;;;;;;;10.08;57.33;100681.97;5103340;28;20141;-71
2022/11/26 08:00:38;;;;;;;;;;;;;;;10.28;56.62;100690.00;5103087;28;19919;-70
2022/11/26 08:03:04;;;;;;;;;;;;;;;10.40;56.09;100680.94;5102857;28;19912;-68
2022/11/26 08:05:29;;;;;;;;;;;;;;;10.28;56.17;100682.88;5103353;28;20128;-68
2022/11/26 08:07:54;;;;;;;;;;;;;;;10.51;56.68;100686.16;5103159;28;19912;-68
2022/11/26 08:10:20;;;;;;;;;;;;;;;10.04;57.25;100680.59;5102700;28;19912;-72
2022/11/26 08:12:45;;;;;;;;;;;;;;;10.27;56.38;100683.03;5102896;28;19916;-69
2022/11/26 08:15:10;;;;;;;;;;;;;;;10.01;57.53;100674.72;5103064;28;19911;-68
2022/11/26 08:17:36;;;;;;;;;;;;;;;10.28;56.10;100667.00;5102555;28;19915;-69
2022/11/26 08:20:01;;;;;;;;;;;;;;;10.47;55.12;100676.81;5102903;28;19974;-68
2022/11/26 08:22:28;;;;;;;;;;;;;;;10.76;54.95;100672.34;5103221;28;20194;-70
2022/11/26 08:24:53;;;;;;;;;;;;;;;10.66;54.99;100675.97;5102556;28;19915;-70
2022/11/26 08:27:18;;;;;;;;;;;;;;;10.74;54.34;100684.06;5102903;28;19916;-69
2022/11/26 08:29:43;;;;;;;;;;;;;;;10.60;55.34;100687.13;5102994;28;19915;-72
2022/11/26 08:32:09;;;;;;;;;;;;;;;10.69;54.65;100681.00;5103133;28;19911;-69
2022/11/26 08:34:34;;;;;;;;;;;;;;;10.26;56.18;100682.19;5106032;28;19915;-68
2022/11/26 08:36:59;;;;;;;;;;;;;;;10.47;57.00;100682.09;5107215;28;19912;-72
2022/11/26 08:39:25;;;;;;;;;;;;;;;10.39;57.01;100673.97;5106254;28;19911;-70
2022/11/26 08:41:50;;;;;;;;;;;;;;;10.50;56.91;100680.00;5106957;28;20093;-69
2022/11/26 08:44:15;;;;;;;;;;;;;;;10.72;57.75;100680.72;5106559;28;19916;-70
2022/11/26 08:46:41;;;;;;;;;;;;;;;10.58;57.12;100679.31;5088209;28;19958;-72
2022/11/26 08:49:08;;;;;;;;;;;;;;;10.76;58.04;100677.63;5106497;28;20167;-70
2022/11/26 08:51:33;;;;;;;;;;;;;;;10.66;57.49;100676.81;5106873;28;20128;-71
2022/11/26 08:53:59;;;;;;;;;;;;;;;10.50;58.50;100682.66;5106470;28;19949;-70
2022/11/26 08:56:24;;;;;;;;;;;;;;;10.46;59.47;100678.63;5106285;28;19911;-71
2022/11/26 08:58:50;;;;;;;;;;;;;;;10.66;57.65;100684.75;5106572;28;19912;-72
2022/11/26 09:01:41;;;;;;;;;;;;;;;10.73;57.82;100688.50;5106619;28;19912;-71
2022/11/26 09:04:07;;;;;;;;;;;;;;;10.72;57.45;100686.84;5103118;28;20182;-71
2022/11/26 09:06:35;;;;;;;;;;;;;;;10.72;57.79;100686.00;5106720;28;19912;-70
2022/11/26 09:09:16;;;;;;;;;;;;;;;10.63;58.41;100687.69;5088015;28;19986;-71
2022/11/26 09:11:46;;;;;;;;;;;;;;;10.71;56.23;100686.97;5106330;28;19915;-70
2022/11/26 09:14:12;;;;;;;;;;;;;;;10.90;56.26;100691.44;5106068;28;20224;-70
2022/11/26 09:16:38;;;;;;;;;;;;;;;10.94;56.46;100700.78;5106265;28;20211;-70
2022/11/26 09:19:05;;;;;;;;;;;;;;;10.82;56.13;100698.28;5105871;28;20025;-72
2022/11/26 09:21:30;;;;;;;;;;;;;;;11.25;55.57;100686.34;5106334;28;19951;-70
2022/11/26 09:23:55;;;;;;;;;;;;;;;11.28;55.39;100693.19;5105787;28;20163;-70
2022/11/26 09:26:21;;;;;;;;;;;;;;;11.18;54.88;100679.94;5106117;28;20117;-71
2022/11/26 09:28:47;;;;;;;;;;;;;;;11.49;54.37;100678.75;5105982;28;20099;-70
2022/11/26 09:31:13;;;;;;;;;;;;;;;11.34;54.43;100677.53;5106049;28;19979;-70
2022/11/26 09:33:38;;;;;;;;;;;;;;;11.44;55.13;100667.75;5105570;28;20126;-71
2022/11/26 09:36:04;;;;;;;;;;;;;;;11.41;53.87;100665.38;5105899;28;20033;-70
2022/11/26 09:38:30;;;;;;;;;;;;;;;11.38;54.89;100659.50;5105685;28;19923;-71
2022/11/26 09:41:02;;;;;;;;;;;;;;;11.63;53.91;100648.28;5105197;28;19987;-71
2022/11/26 09:43:30;;;;;;;;;;;;;;;11.71;53.07;100644.88;5105564;28;19915;-70
2022/11/26 09:45:58;;;;;;;;;;;;;;;11.56;53.42;100649.84;5105298;28;19979;-72
2022/11/26 09:48:24;;;;;;;;;;;;;;;11.55;52.42;100650.81;5105235;28;19916;-70
2022/11/26 09:50:51;;;;;;;;;;;;;;;11.69;51.95;100646.84;5105563;28;20202;-71
2022/11/26 09:53:24;;;;;;;;;;;;;;;11.59;52.03;100646.06;5105507;28;20226;-71
2022/11/26 09:55:51;;;;;;;;;;;;;;;11.91;50.68;100637.69;5105004;28;19908;-71
2022/11/26 09:58:23;;;;;;;;;;;;;;;11.85;49.59;100639.13;5105419;28;19934;-71
2022/11/26 10:00:50;;;;;;;;;;;;;;;11.61;50.22;100633.50;5105359;28;19946;-71
2022/11/26 10:03:23;;;;;;;;;;;;;;;11.72;50.41;100630.63;5104877;28;19953;-71
2022/11/26 10:05:51;;;;;;;;;;;;;;;11.73;48.84;100630.50;5105496;28;20166;-71
2022/11/26 10:08:35;;;;;;;;;;;;;;;11.54;49.92;100619.97;5105124;28;19916;-70
2022/11/26 10:11:13;;;;;;;;;;;;;;;11.80;49.76;100628.13;5104676;28;20006;-70
2022/11/26 10:13:56;;;;;;;;;;;;;;;11.95;48.47;100620.47;5104861;28;19961;-72
2022/11/26 10:16:40;;;;;;;;;;;;;;;12.15;48.10;100616.72;5105381;28;20098;-70
2022/11/26 10:19:31;;;;;;;;;;;;;;;12.21;46.90;100612.63;5104795;28;19955;-71
2022/11/26 10:21:59;;;;;;;;;;;;;;;12.09;46.50;100615.50;5084861;28;20132;-72
2022/11/26 10:24:33;;;;;;;;;;;;;;;12.24;47.50;100601.69;5104363;28;19954;-71
2022/11/26 10:27:02;;;;;;;;;;;;;;;12.01;46.94;100612.75;5105397;28;19916;-71
2022/11/26 10:29:39;;;;;;;;;;;;;;;12.08;48.01;100605.03;5104532;28;19987;-71
2022/11/26 10:32:24;;;;;;;;;;;;;;;11.91;48.32;100601.38;5104364;28;19915;-72
2022/11/26 10:34:54;;;;;;;;;;;;;;;11.91;48.30;100600.53;5086543;28;20229;-72
2022/11/26 10:37:21;;;;;;;;;;;;;;;12.00;45.84;100597.81;5104439;28;19916;-72
2022/11/26 10:39:46;;;;;;;;;;;;;;;12.20;45.71;100602.97;5103981;28;20224;-71
2022/11/26 10:42:19;;;;;;;;;;;;;;;12.50;45.53;100596.47;5104803;28;19939;-72
2022/11/26 10:44:44;;;;;;;;;;;;;;;12.34;48.26;100594.47;5104301;28;19911;-72
2022/11/26 10:47:21;;;;;;;;;;;;;;;12.27;47.21;100588.94;5104575;28;19974;-71
2022/11/26 10:49:47;;;;;;;;;;;;;;;12.32;46.74;100586.66;5104232;28;20398;-71
2022/11/26 10:52:19;;;;;;;;;;;;;;;12.50;43.83;100585.84;5104734;28;19949;-70
2022/11/26 10:54:44;;;;;;;;;;;;;;;12.39;46.79;100582.41;5103773;28;19912;-69
2022/11/26 10:57:17;;;;;;;;;;;;;;;12.15;48.63;100582.19;5103919;28;19941;-72
2022/11/26 10:59:43;;;;;;;;;;;;;;;12.41;47.66;100576.94;5104098;28;19919;-70
2022/11/26 11:02:27;;;;;;;;;;;;;;;12.68;46.62;100570.69;5104318;28;19916;-71
2022/11/26 11:04:53;;;;;;;;;;;;;;;12.72;47.71;100577.38;5103880;28;19912;-72
2022/11/26 11:07:35;;;;;;;;;;;;;;;12.73;47.06;100579.03;5104059;28;19939;-70
2022/11/26 11:10:12;;;;;;;;;;;;;;;12.54;47.10;100579.22;5103394;28;19908;-68
2022/11/26 11:12:47;;;;;;;;;;;;;;;12.25;47.58;100576.81;5103784;28;20148;-70
2022/11/26 11:15:25;;;;;;;;;;;;;;;12.33;46.99;100574.22;5103811;28;19912;-69
2022/11/26 11:18:06;;;;;;;;;;;;;;;12.28;47.09;100581.81;5103462;28;19912;-68
2022/11/26 11:20:31;;;;;;;;;;;;;;;12.51;46.18;100571.56;5103588;28;19991;-69
2022/11/26 11:22:59;;;;;;;;;;;;;;;12.27;46.78;100580.16;5104142;28;19912;-69
2022/11/26 11:25:27;;;;;;;;;;;;;;;12.55;45.81;100573.75;5103478;28;19943;-68
2022/11/26 11:27:54;;;;;;;;;;;;;;;12.60;46.01;100578.63;5103546;28;19912;-72
2022/11/26 11:30:24;;;;;;;;;;;;;;;12.81;44.82;100571.13;5092148;28;19935;-71
2022/11/26 11:32:50;;;;;;;;;;;;;;;13.06;45.22;100575.59;5101376;28;19919;-71
2022/11/26 11:35:18;;;;;;;;;;;;;;;12.72;45.93;100574.72;5103804;28;19912;-68
2022/11/26 11:38:01;;;;;;;;;;;;;;;13.00;46.37;100570.91;5103322;28;19938;-69
2022/11/26 11:40:29;;;;;;;;;;;;;;;12.90;45.33;100567.53;5103058;28;20102;-69
2022/11/26 11:42:54;;;;;;;;;;;;;;;13.10;44.80;100565.47;5103175;28;20122;-69
2022/11/26 11:45:40;;;;;;;;;;;;;;;13.18;43.42;100570.88;5103615;28;19912;-71
2022/11/26 11:48:05;;;;;;;;;;;;;;;13.10;43.28;100563.66;5102507;28;19912;-70
2022/11/26 11:50:37;;;;;;;;;;;;;;;13.11;44.49;100565.31;5103331;28;19911;-69
2022/11/26 11:53:17;;;;;;;;;;;;;;;12.97;44.50;100563.25;5103286;28;19919;-69
2022/11/26 11:55:54;;;;;;;;;;;;;;;12.90;43.37;100556.06;5103044;28;19919;-69
2022/11/26 11:58:38;;;;;;;;;;;;;;;12.91;43.36;100557.72;5103246;28;19991;-68
2022/11/26 12:01:09;;;;;;;;;;;;;;;13.09;43.76;100558.50;5103438;28;19955;-68
2022/11/26 12:03:41;;;;;;;;;;;;;;;13.21;42.21;100553.75;5103086;28;19982;-71
2022/11/26 12:06:09;;;;;;;;;;;;;;;13.24;42.70;100553.44;5103474;28;19983;-68
2022/11/26 12:08:53;;;;;;;;;;;;;;;13.35;42.41;100547.84;5106314;28;19919;-69
2022/11/26 12:11:30;;;;;;;;;;;;;;;13.36;42.85;100549.50;5107045;28;20205;-69
2022/11/26 12:14:02;;;;;;;;;;;;;;;12.82;43.13;100550.69;5107157;28;19912;-69
2022/11/26 12:16:31;;;;;;;;;;;;;;;12.88;43.50;100540.28;5107651;28;20188;-68
2022/11/26 12:19:04;;;;;;;;;;;;;;;13.08;41.70;100551.50;5090368;28;20378;-69
2022/11/26 12:21:43;;;;;;;;;;;;;;;13.28;40.75;100547.66;5085666;28;19916;-68
2022/11/26 12:24:15;;;;;;;;;;;;;;;13.39;40.15;100547.34;5085850;28;19995;-68
2022/11/26 12:27:00;;;;;;;;;;;;;;;13.72;40.94;100553.63;5069363;28;20092;-68
2022/11/26 12:29:29;;;;;;;;;;;;;;;13.61;41.53;100545.97;5076635;28;19995;-68
2022/11/26 12:31:57;;;;;;;;;;;;;;;13.19;40.90;100547.78;5087306;28;19934;-70
2022/11/26 12:34:22;;;;;;;;;;;;;;;13.17;40.61;100542.59;5067829;28;20103;-68
2022/11/26 12:36:52;;;;;;;;;;;;;;;13.20;39.53;100546.78;5085303;28;19915;-69
2022/11/26 12:39:27;;;;;;;;;;;;;;;13.49;38.98;100547.22;5088322;28;19959;-70
2022/11/26 12:42:00;;;;;;;;;;;;;;;13.38;39.96;100555.50;5087250;28;19918;-70
2022/11/26 12:44:31;;;;;;;;;;;;;;;13.58;39.56;100558.75;5088553;28;20111;-70
2022/11/26 12:47:16;;;;;;;;;;;;;;;13.43;39.21;100558.50;5089908;28;19997;-68